createdAt,value
2018-06-10T00:00:14.131Z,23.87
2018-06-10T00:02:41.077Z,25.70
2018-06-10T00:05:08.026Z,26.23
2018-06-10T00:07:34.960Z,25.27
2018-06-10T00:10:01.918Z,22.70
2018-06-10T00:12:28.903Z,29.80
2018-06-10T00:14:55.833Z,25.67
2018-06-10T00:17:22.792Z,33.10
2018-06-10T00:19:49.772Z,28.97
2018-06-10T00:22:16.730Z,27.60
2018-06-10T00:24:43.666Z,27.57
2018-06-10T00:27:10.632Z,30.67
2018-06-10T00:29:37.578Z,24.50
2018-06-10T00:32:04.628Z,28.20
2018-06-10T00:34:31.622Z,26.17
2018-06-10T00:36:58.549Z,27.60
2018-06-10T00:39:25.490Z,28.23
2018-06-10T00:41:52.463Z,29.00
2018-06-10T00:44:19.386Z,27.07
2018-06-10T00:46:46.326Z,36.73
2018-06-10T00:49:13.291Z,36.87
2018-06-10T00:51:40.212Z,39.40
2018-06-10T00:54:07.167Z,33.40
2018-06-10T00:56:45.941Z,32.83
2018-06-10T00:59:12.869Z,41.13
2018-06-10T01:01:39.795Z,36.60
2018-06-10T01:04:06.737Z,35.97
2018-06-10T01:06:33.744Z,38.10
2018-06-10T01:09:00.726Z,35.83
2018-06-10T01:11:27.637Z,36.53
2018-06-10T01:13:54.594Z,29.20
2018-06-10T01:16:21.534Z,26.93
2018-06-10T01:18:48.488Z,33.53
2018-06-10T01:21:16.014Z,34.50
2018-06-10T01:23:42.952Z,35.50
2018-06-10T01:26:09.927Z,37.50
2018-06-10T01:28:36.857Z,36.87
2018-06-10T01:31:03.806Z,34.93
2018-06-10T01:33:30.756Z,35.00
2018-06-10T01:35:57.742Z,33.27
2018-06-10T01:38:24.680Z,33.23
2018-06-10T01:40:51.654Z,36.20
2018-06-10T01:43:18.583Z,41.20
2018-06-10T01:45:45.535Z,37.70
2018-06-10T01:48:12.498Z,48.30
2018-06-10T01:50:39.432Z,33.07
2018-06-10T01:53:06.392Z,48.80
2018-06-10T01:55:33.400Z,31.10
2018-06-10T01:58:00.450Z,34.70
2018-06-10T02:00:27.391Z,42.47
2018-06-10T02:02:54.366Z,37.30
2018-06-10T02:05:21.305Z,32.93
2018-06-10T02:07:48.241Z,32.50
2018-06-10T02:10:15.224Z,33.70
2018-06-10T02:12:42.161Z,37.27
2018-06-10T02:15:09.096Z,34.00
2018-06-10T02:17:36.027Z,37.07
2018-06-10T02:20:03.052Z,35.47
2018-06-10T02:22:30.006Z,36.43
2018-06-10T02:24:56.957Z,34.80
2018-06-10T02:27:23.886Z,39.40
2018-06-10T02:29:50.820Z,36.80
2018-06-10T02:32:17.802Z,37.83
2018-06-10T02:34:44.728Z,37.63
2018-06-10T02:37:11.657Z,38.90
2018-06-10T02:39:38.614Z,38.80
2018-06-10T02:42:05.552Z,38.40
2018-06-10T02:44:32.500Z,34.97
2018-06-10T02:46:59.467Z,44.87
2018-06-10T02:49:26.398Z,36.37
2018-06-10T02:51:53.378Z,36.07
2018-06-10T02:54:20.342Z,30.80
2018-06-10T02:56:47.288Z,31.17
2018-06-10T02:59:14.273Z,37.83
2018-06-10T03:01:41.250Z,37.00
2018-06-10T03:04:08.177Z,36.00
2018-06-10T03:06:35.126Z,33.10
2018-06-10T03:09:02.149Z,33.90
2018-06-10T03:11:29.126Z,31.37
2018-06-10T03:13:56.025Z,34.10
2018-06-10T03:16:24.595Z,33.57
2018-06-10T03:18:51.540Z,33.23
2018-06-10T03:21:18.483Z,29.10
2018-06-10T03:23:45.424Z,31.03
2018-06-10T03:26:12.374Z,34.80
2018-06-10T03:28:39.313Z,33.40
2018-06-10T03:31:06.286Z,32.57
2018-06-10T03:33:33.234Z,35.73
2018-06-10T03:36:00.156Z,42.83
2018-06-10T03:38:27.123Z,33.20
2018-06-10T03:40:54.068Z,32.73
2018-06-10T03:43:21.009Z,30.57
2018-06-10T03:45:48.003Z,34.90
2018-06-10T03:48:14.937Z,34.20
2018-06-10T03:50:41.872Z,34.47
2018-06-10T03:53:08.806Z,30.07
2018-06-10T03:55:36.702Z,36.97
2018-06-10T03:58:03.650Z,34.90
2018-06-10T04:00:30.615Z,37.80
2018-06-10T04:02:57.572Z,35.40
2018-06-10T04:05:24.527Z,34.90
2018-06-10T04:07:51.474Z,35.47
2018-06-10T04:10:18.418Z,33.70
2018-06-10T04:12:45.356Z,33.23
2018-06-10T04:15:12.317Z,35.83
2018-06-10T04:17:39.308Z,31.80
2018-06-10T04:20:06.267Z,34.90
2018-06-10T04:22:33.212Z,31.87
2018-06-10T04:25:00.163Z,31.73
2018-06-10T04:27:27.106Z,33.90
2018-06-10T04:29:54.067Z,34.60
2018-06-10T04:32:21.021Z,33.80
2018-06-10T04:34:47.991Z,32.20
2018-06-10T04:37:14.928Z,35.70
2018-06-10T04:39:41.945Z,32.53
2018-06-10T04:42:08.886Z,31.13
2018-06-10T04:44:35.840Z,35.03
2018-06-10T04:47:02.756Z,31.60
2018-06-10T04:49:29.708Z,29.53
2018-06-10T04:51:56.678Z,35.03
2018-06-10T04:54:23.636Z,28.80
2018-06-10T04:56:50.566Z,28.17
2018-06-10T04:59:17.760Z,32.07
2018-06-10T05:01:44.697Z,33.03
2018-06-10T05:04:11.629Z,26.23
2018-06-10T05:06:38.593Z,27.20
2018-06-10T05:09:05.821Z,29.57
2018-06-10T05:11:32.739Z,27.23
2018-06-10T05:13:59.684Z,26.40
2018-06-10T05:16:26.673Z,27.23
2018-06-10T05:18:54.237Z,27.83
2018-06-10T05:21:21.191Z,26.10
2018-06-10T05:23:48.128Z,28.03
2018-06-10T05:26:15.053Z,29.63
2018-06-10T05:28:42.005Z,29.10
2018-06-10T05:31:08.998Z,32.07
2018-06-10T05:33:35.993Z,30.10
2018-06-10T05:36:02.957Z,30.03
2018-06-10T05:38:30.568Z,27.27
2018-06-10T05:40:57.527Z,28.50
2018-06-10T05:43:24.485Z,29.30
2018-06-10T05:45:51.471Z,26.27
2018-06-10T05:48:18.413Z,28.10
2018-06-10T05:50:45.342Z,26.97
2018-06-10T05:53:12.254Z,26.87
2018-06-10T05:55:39.193Z,34.00
2018-06-10T05:58:06.151Z,25.27
2018-06-10T06:00:33.072Z,27.73
2018-06-10T06:03:00.008Z,25.40
2018-06-10T06:05:26.967Z,29.13
2018-06-10T06:07:53.897Z,23.73
2018-06-10T06:10:20.829Z,22.37
2018-06-10T06:12:47.764Z,24.43
2018-06-10T06:15:14.697Z,31.73
2018-06-10T06:17:41.607Z,25.10
2018-06-10T06:20:08.647Z,38.37
2018-06-10T06:22:35.569Z,28.50
2018-06-10T06:25:02.495Z,20.53
2018-06-10T06:27:29.550Z,21.50
2018-06-10T06:29:56.408Z,21.70
2018-06-10T06:32:23.318Z,22.87
2018-06-10T06:34:50.277Z,19.20
2018-06-10T06:37:17.258Z,23.50
2018-06-10T06:39:44.212Z,20.97
2018-06-10T06:42:11.144Z,19.00
2018-06-10T06:44:38.076Z,20.07
2018-06-10T06:47:05.055Z,18.17
2018-06-10T06:49:31.996Z,17.67
2018-06-10T06:51:58.967Z,18.27
2018-06-10T06:54:25.891Z,14.90
2018-06-10T06:56:52.833Z,16.07
2018-06-10T06:59:19.771Z,14.10
2018-06-10T07:01:46.810Z,13.83
2018-06-10T07:04:13.896Z,13.30
2018-06-10T07:06:40.828Z,15.67
2018-06-10T07:09:07.832Z,18.73
2018-06-10T07:11:35.536Z,16.43
2018-06-10T07:14:02.502Z,14.20
2018-06-10T07:16:29.428Z,22.43
2018-06-10T07:18:56.391Z,15.40
2018-06-10T07:21:23.340Z,15.13
2018-06-10T07:23:50.318Z,23.00
2018-06-10T07:26:17.290Z,15.10
2018-06-10T07:28:44.242Z,15.67
2018-06-10T07:31:11.283Z,15.43
2018-06-10T07:33:38.339Z,14.17
2018-06-10T07:36:05.367Z,14.83
2018-06-10T07:38:32.400Z,16.23
2018-06-10T07:40:59.452Z,15.40
2018-06-10T07:43:26.500Z,13.77
2018-06-10T07:45:53.535Z,16.00
2018-06-10T07:48:20.613Z,19.73
2018-06-10T07:50:47.622Z,16.63
2018-06-10T07:53:14.644Z,17.10
2018-06-10T07:55:42.113Z,14.43
2018-06-10T07:58:09.164Z,14.17
2018-06-10T08:00:36.237Z,15.10
2018-06-10T08:03:03.275Z,13.60
2018-06-10T08:05:30.324Z,14.03
2018-06-10T08:07:57.243Z,14.40
2018-06-10T08:10:24.470Z,12.43
2018-06-10T08:12:51.426Z,12.37
2018-06-10T08:15:18.368Z,15.20
2018-06-10T08:17:45.312Z,14.33
2018-06-10T08:20:12.235Z,10.00
2018-06-10T08:22:39.740Z,12.70
2018-06-10T08:25:06.718Z,10.30
2018-06-10T08:27:33.648Z,10.93
2018-06-10T08:30:00.635Z,10.30
2018-06-10T08:32:27.566Z,11.63
2018-06-10T08:34:54.502Z,11.43
2018-06-10T08:37:21.442Z,11.73
2018-06-10T08:39:48.399Z,13.13
2018-06-10T08:42:15.430Z,10.67
2018-06-10T08:44:42.453Z,11.00
2018-06-10T08:47:09.459Z,12.60
2018-06-10T08:49:36.403Z,11.23
2018-06-10T08:52:03.567Z,11.10
2018-06-10T08:54:30.627Z,13.63
2018-06-10T08:56:57.702Z,12.20
2018-06-10T08:59:24.734Z,13.30
2018-06-10T09:01:51.811Z,11.20
2018-06-10T09:04:18.834Z,9.50
2018-06-10T09:06:45.850Z,9.57
2018-06-10T09:09:12.896Z,15.00
2018-06-10T09:11:39.963Z,11.20
2018-06-10T09:14:06.996Z,12.43
2018-06-10T09:16:34.063Z,11.50
2018-06-10T09:19:01.108Z,11.20
2018-06-10T09:21:28.245Z,10.13
2018-06-10T09:23:55.348Z,11.67
2018-06-10T09:26:22.401Z,9.50
2018-06-10T09:28:49.489Z,13.33
2018-06-10T09:31:16.540Z,10.63
2018-06-10T09:33:43.610Z,10.83
2018-06-10T09:36:10.663Z,9.67
2018-06-10T09:38:37.698Z,13.57
2018-06-10T09:41:04.747Z,10.30
2018-06-10T09:43:31.766Z,20.10
2018-06-10T09:45:58.867Z,13.00
2018-06-10T09:48:25.907Z,11.00
2018-06-10T09:50:52.990Z,10.03
2018-06-10T09:53:20.027Z,18.03
2018-06-10T09:55:47.046Z,10.30
2018-06-10T09:58:14.091Z,13.33
2018-06-10T10:00:41.166Z,9.97
2018-06-10T10:03:08.204Z,10.73
2018-06-10T10:05:35.250Z,13.40
2018-06-10T10:08:02.291Z,13.20
2018-06-10T10:10:29.337Z,10.47
2018-06-10T10:12:56.385Z,11.13
2018-06-10T10:15:23.456Z,11.53
2018-06-10T10:17:50.512Z,16.50
2018-06-10T10:20:17.551Z,12.73
2018-06-10T10:22:44.621Z,15.03
2018-06-10T10:25:11.704Z,14.67
2018-06-10T10:27:38.768Z,14.70
2018-06-10T10:30:05.828Z,13.73
2018-06-10T10:32:32.869Z,11.63
2018-06-10T10:34:59.909Z,13.00
2018-06-10T10:37:26.982Z,10.67
2018-06-10T10:39:54.069Z,13.70
2018-06-10T10:42:21.120Z,13.13
2018-06-10T10:44:48.410Z,10.40
2018-06-10T10:47:15.470Z,11.50
2018-06-10T10:49:42.524Z,11.17
2018-06-10T10:52:09.584Z,11.20
2018-06-10T10:54:36.628Z,9.90
2018-06-10T10:57:03.646Z,16.57
2018-06-10T10:59:30.703Z,10.17
2018-06-10T11:01:57.756Z,11.33
2018-06-10T11:04:24.786Z,16.00
2018-06-10T11:06:51.846Z,11.57
2018-06-10T11:09:18.884Z,9.40
2018-06-10T11:11:45.906Z,10.80
2018-06-10T11:14:12.948Z,12.40
2018-06-10T11:16:40.072Z,10.40
2018-06-10T11:19:07.132Z,11.53
2018-06-10T11:21:34.188Z,10.30
2018-06-10T11:24:01.239Z,10.93
2018-06-10T11:26:28.324Z,10.60
2018-06-10T11:28:55.380Z,14.23
2018-06-10T11:31:22.450Z,10.80
2018-06-10T11:33:49.462Z,9.90
2018-06-10T11:36:16.500Z,10.03
2018-06-10T11:38:43.606Z,11.33
2018-06-10T11:41:10.659Z,12.27
2018-06-10T11:43:37.740Z,10.13
2018-06-10T11:46:04.772Z,7.07
2018-06-10T11:48:31.844Z,11.07
2018-06-10T11:50:58.892Z,9.43
2018-06-10T11:53:25.927Z,11.67
2018-06-10T11:55:52.947Z,10.83
2018-06-10T11:58:20.013Z,20.07
2018-06-10T12:00:47.359Z,12.87
2018-06-10T12:03:14.378Z,13.53
2018-06-10T12:05:41.419Z,11.83
2018-06-10T12:08:08.445Z,12.50
2018-06-10T12:10:35.912Z,19.00
2018-06-10T12:13:02.953Z,16.27
2018-06-10T12:15:30.092Z,13.60
2018-06-10T12:17:57.157Z,14.50
2018-06-10T12:20:24.245Z,13.60
2018-06-10T12:22:51.330Z,21.70
2018-06-10T12:25:18.347Z,15.50
2018-06-10T12:27:45.416Z,23.50
2018-06-10T12:30:12.390Z,22.27
2018-06-10T12:32:39.327Z,19.03
2018-06-10T12:35:06.357Z,20.20
2018-06-10T12:37:33.329Z,23.00
2018-06-10T12:40:00.331Z,27.40
2018-06-10T12:42:27.283Z,27.27
2018-06-10T12:44:54.247Z,20.40
2018-06-10T12:47:21.251Z,27.90
2018-06-10T12:49:48.214Z,25.63
2018-06-10T12:52:15.234Z,16.90
2018-06-10T12:54:42.191Z,17.17
2018-06-10T12:57:09.164Z,16.47
2018-06-10T12:59:36.144Z,13.33
2018-06-10T13:02:03.144Z,15.83
2018-06-10T13:04:30.126Z,16.60
2018-06-10T13:06:57.107Z,15.03
2018-06-10T13:09:24.031Z,16.13
2018-06-10T13:11:51.004Z,22.67
2018-06-10T13:14:18.061Z,15.57
2018-06-10T13:16:45.096Z,16.60
2018-06-10T13:19:12.239Z,16.03
2018-06-10T13:21:39.270Z,15.23
2018-06-10T13:24:06.308Z,17.17
2018-06-10T13:26:33.253Z,15.20
2018-06-10T13:29:00.565Z,12.10
2018-06-10T13:31:27.574Z,17.13
2018-06-10T13:33:54.568Z,18.17
2018-06-10T13:36:21.496Z,14.40
2018-06-10T13:38:48.438Z,17.43
2018-06-10T13:41:16.309Z,18.17
2018-06-10T13:43:43.325Z,14.37
2018-06-10T13:46:10.301Z,12.10
2018-06-10T13:48:37.301Z,15.67
2018-06-10T13:51:04.234Z,16.70
2018-06-10T13:53:31.285Z,13.40
2018-06-10T13:55:58.328Z,17.47
2018-06-10T13:58:25.356Z,20.43
2018-06-10T14:00:52.591Z,20.40
2018-06-10T14:03:19.772Z,15.57
2018-06-10T14:05:46.803Z,16.43
2018-06-10T14:08:13.841Z,12.97
2018-06-10T14:10:40.799Z,16.20
2018-06-10T14:13:07.818Z,17.93
2018-06-10T14:15:34.776Z,20.40
2018-06-10T14:18:01.720Z,18.27
2018-06-10T14:20:28.687Z,13.80
2018-06-10T14:22:55.702Z,17.30
2018-06-10T14:25:22.887Z,19.70
2018-06-10T14:27:49.831Z,16.23
2018-06-10T14:30:16.809Z,18.83
2018-06-10T14:32:43.728Z,18.77
2018-06-10T14:35:10.670Z,18.73
2018-06-10T14:37:37.613Z,25.10
2018-06-10T14:40:04.719Z,20.43
2018-06-10T14:42:32.213Z,18.90
2018-06-10T14:44:59.188Z,17.20
2018-06-10T14:47:26.106Z,24.30
2018-06-10T14:49:53.089Z,17.23
2018-06-10T14:52:20.030Z,23.40
2018-06-10T14:54:46.956Z,22.57
2018-06-10T14:57:13.898Z,20.60
2018-06-10T14:59:40.875Z,20.40
2018-06-10T15:02:07.867Z,26.00
2018-06-10T15:04:34.852Z,19.37
2018-06-10T15:07:01.813Z,23.73
2018-06-10T15:09:28.764Z,24.93
2018-06-10T15:11:55.760Z,25.27
2018-06-10T15:14:22.750Z,22.47
2018-06-10T15:16:49.733Z,24.33
2018-06-10T15:19:16.735Z,30.23
2018-06-10T15:21:43.684Z,35.77
2018-06-10T15:24:10.741Z,43.47
2018-06-10T15:26:37.735Z,32.87
2018-06-10T15:29:04.820Z,41.23
2018-06-10T15:31:31.798Z,28.00
2018-06-10T15:33:58.789Z,25.77
2018-06-10T15:36:25.740Z,23.40
2018-06-10T15:38:52.676Z,22.37
2018-06-10T15:41:19.633Z,21.60
2018-06-10T15:43:46.672Z,27.20
2018-06-10T15:46:13.719Z,25.50
2018-06-10T15:48:41.371Z,23.50
2018-06-10T15:51:08.329Z,27.90
2018-06-10T15:53:35.252Z,24.97
2018-06-10T15:56:02.252Z,26.93
2018-06-10T15:58:29.196Z,21.20
2018-06-10T16:00:56.163Z,22.87
2018-06-10T16:03:23.106Z,22.60
2018-06-10T16:05:50.044Z,25.33
2018-06-10T16:08:17.010Z,22.47
2018-06-10T16:10:44.065Z,24.67
2018-06-10T16:13:11.093Z,25.37
2018-06-10T16:15:38.069Z,24.10
2018-06-10T16:18:05.093Z,27.37
2018-06-10T16:20:32.041Z,23.23
2018-06-10T16:22:59.087Z,20.50
2018-06-10T16:25:26.084Z,34.07
2018-06-10T16:27:53.035Z,23.47
2018-06-10T16:30:20.035Z,30.97
2018-06-10T16:32:47.009Z,30.03
2018-06-10T16:35:13.973Z,34.63
2018-06-10T16:37:40.914Z,24.07
2018-06-10T16:40:07.887Z,29.67
2018-06-10T16:42:34.930Z,24.67
2018-06-10T16:45:01.889Z,29.50
2018-06-10T16:47:28.816Z,27.00
2018-06-10T16:49:55.776Z,28.17
2018-06-10T16:52:22.715Z,28.40
2018-06-10T16:54:49.699Z,26.53
2018-06-10T16:57:16.649Z,34.67
2018-06-10T16:59:43.645Z,37.03
2018-06-10T17:02:10.647Z,35.23
2018-06-10T17:04:37.601Z,25.47
2018-06-10T17:07:04.568Z,22.47
2018-06-10T17:09:31.535Z,27.93
2018-06-10T17:11:58.498Z,25.33
2018-06-10T17:14:25.511Z,29.53
2018-06-10T17:16:52.499Z,25.93
2018-06-10T17:19:19.510Z,27.33
2018-06-10T17:21:46.485Z,24.53
2018-06-10T17:24:13.441Z,26.10
2018-06-10T17:26:40.374Z,27.67
2018-06-10T17:29:07.401Z,27.63
2018-06-10T17:31:34.368Z,25.90
2018-06-10T17:34:01.712Z,23.73
2018-06-10T17:36:28.683Z,35.60
2018-06-10T17:38:55.628Z,42.80
2018-06-10T17:41:22.574Z,28.53
2018-06-10T17:43:49.697Z,36.93
2018-06-10T17:46:16.691Z,25.93
2018-06-10T17:48:43.620Z,27.50
2018-06-10T17:51:10.589Z,33.90
2018-06-10T17:53:37.571Z,24.70
2018-06-10T17:56:04.608Z,24.43
2018-06-10T17:58:31.590Z,40.53
2018-06-10T18:00:58.637Z,38.93
2018-06-10T18:03:25.552Z,23.80
2018-06-10T18:05:52.511Z,32.63
2018-06-10T18:08:19.494Z,29.23
2018-06-10T18:10:46.511Z,23.87
2018-06-10T18:13:13.450Z,24.27
2018-06-10T18:15:40.402Z,44.17
2018-06-10T18:18:07.500Z,29.83
2018-06-10T18:20:34.458Z,22.73
2018-06-10T18:23:01.509Z,28.37
2018-06-10T18:25:28.579Z,26.80
2018-06-10T18:27:55.535Z,26.37
2018-06-10T18:30:22.478Z,27.73
2018-06-10T18:32:49.412Z,33.13
2018-06-10T18:35:16.523Z,25.30
2018-06-10T18:37:43.452Z,31.60
2018-06-10T18:40:10.392Z,23.07
2018-06-10T18:42:37.323Z,34.33
2018-06-10T18:45:04.317Z,31.50
2018-06-10T18:47:31.245Z,31.60
2018-06-10T18:49:58.277Z,32.87
2018-06-10T18:52:25.433Z,29.47
2018-06-10T18:54:52.369Z,30.90
2018-06-10T18:57:19.316Z,37.50
2018-06-10T18:59:46.338Z,36.73
2018-06-10T19:02:13.276Z,33.07
2018-06-10T19:04:40.263Z,29.40
2018-06-10T19:07:07.218Z,27.50
2018-06-10T19:09:34.191Z,34.50
2018-06-10T19:12:01.163Z,33.90
2018-06-10T19:14:28.084Z,40.27
2018-06-10T19:16:55.679Z,33.43
2018-06-10T19:19:22.649Z,44.50
2018-06-10T19:21:49.603Z,31.50
2018-06-10T19:24:16.642Z,34.47
2018-06-10T19:26:43.606Z,43.97
2018-06-10T19:29:10.600Z,38.20
2018-06-10T19:31:37.590Z,41.13
2018-06-10T19:34:04.631Z,40.47
2018-06-10T19:36:31.746Z,42.90
2018-06-10T19:38:58.701Z,42.17
2018-06-10T19:41:25.656Z,44.37
2018-06-10T19:43:52.602Z,42.83
2018-06-10T19:46:19.536Z,42.60
2018-06-10T19:48:46.487Z,31.80
2018-06-10T19:51:13.448Z,32.17
2018-06-10T19:53:40.447Z,31.60
2018-06-10T19:56:07.729Z,30.70
2018-06-10T19:58:35.075Z,27.87
2018-06-10T20:01:02.040Z,36.60
2018-06-10T20:03:29.030Z,31.50
2018-06-10T20:05:55.994Z,29.33
2018-06-10T20:08:22.965Z,31.63
2018-06-10T20:10:50.112Z,34.97
2018-06-10T20:13:17.065Z,30.33
2018-06-10T20:15:43.990Z,34.23
2018-06-10T20:18:10.951Z,28.67
2018-06-10T20:20:37.966Z,31.80
2018-06-10T20:23:04.919Z,30.43
2018-06-10T20:25:31.875Z,31.10
2018-06-10T20:27:58.861Z,31.07
2018-06-10T20:30:25.945Z,34.40
2018-06-10T20:32:52.871Z,37.47
2018-06-10T20:35:19.818Z,27.63
2018-06-10T20:37:46.805Z,35.30
2018-06-10T20:40:14.596Z,30.40
2018-06-10T20:42:41.572Z,28.23
2018-06-10T20:45:08.503Z,31.73
2018-06-10T20:47:35.475Z,27.33
2018-06-10T20:50:02.411Z,27.63
2018-06-10T20:52:29.370Z,29.43
2018-06-10T20:54:56.334Z,25.30
2018-06-10T20:57:23.287Z,28.93
2018-06-10T20:59:50.225Z,28.83
2018-06-10T21:02:17.180Z,25.17
2018-06-10T21:04:44.167Z,25.83
2018-06-10T21:07:11.124Z,24.20
2018-06-10T21:09:38.116Z,23.20
2018-06-10T21:12:05.097Z,27.70
2018-06-10T21:14:32.025Z,24.37
2018-06-10T21:16:58.982Z,23.30
2018-06-10T21:19:25.957Z,26.37
2018-06-10T21:21:52.947Z,27.00
2018-06-10T21:24:19.928Z,31.13
2018-06-10T21:26:46.859Z,24.10
2018-06-10T21:29:13.827Z,22.50
2018-06-10T21:31:40.783Z,21.23
2018-06-10T21:34:07.730Z,24.30
2018-06-10T21:36:34.686Z,19.30
2018-06-10T21:39:01.717Z,20.70
2018-06-10T21:41:28.709Z,22.67
2018-06-10T21:43:56.089Z,18.33
2018-06-10T21:46:23.031Z,21.70
2018-06-10T21:48:50.006Z,21.33
2018-06-10T21:51:16.988Z,26.60
2018-06-10T21:53:44.352Z,19.03
2018-06-10T21:56:11.279Z,24.20
2018-06-10T21:58:38.207Z,25.23
2018-06-10T22:01:05.760Z,20.10
2018-06-10T22:03:32.719Z,23.83
2018-06-10T22:05:59.637Z,18.57
2018-06-10T22:08:26.584Z,18.20
2018-06-10T22:10:53.520Z,25.53
2018-06-10T22:13:20.444Z,20.83
2018-06-10T22:15:47.534Z,27.03
2018-06-10T22:18:14.481Z,26.33
2018-06-10T22:20:41.494Z,18.43
2018-06-10T22:23:08.467Z,22.47
2018-06-10T22:25:35.378Z,20.50
2018-06-10T22:28:02.317Z,19.63
2018-06-10T22:30:29.335Z,21.40
2018-06-10T22:32:56.265Z,19.70
2018-06-10T22:35:23.190Z,20.87
2018-06-10T22:37:50.196Z,22.53
2018-06-10T22:40:17.131Z,19.30
2018-06-10T22:42:44.072Z,19.77
2018-06-10T22:45:11.088Z,20.50
2018-06-10T22:47:38.016Z,21.47
2018-06-10T22:50:05.053Z,20.93
2018-06-10T22:52:31.996Z,20.10
2018-06-10T22:54:58.927Z,21.97
2018-06-10T22:57:25.856Z,16.13
2018-06-10T22:59:52.790Z,18.80
2018-06-10T23:02:19.828Z,23.03
2018-06-10T23:04:46.756Z,22.03
2018-06-10T23:07:13.736Z,21.70
2018-06-10T23:09:40.663Z,22.30
2018-06-10T23:12:07.583Z,23.70
2018-06-10T23:14:34.557Z,21.80
2018-06-10T23:17:01.479Z,21.30
2018-06-10T23:19:28.398Z,26.37
2018-06-10T23:21:55.382Z,22.30
2018-06-10T23:24:22.299Z,25.10
2018-06-10T23:26:49.213Z,38.33
2018-06-10T23:29:16.152Z,28.20
2018-06-10T23:31:43.067Z,32.50
2018-06-10T23:34:09.998Z,27.47
2018-06-10T23:36:36.944Z,30.70
2018-06-10T23:39:05.847Z,29.63
2018-06-10T23:41:32.804Z,35.20
2018-06-10T23:43:59.727Z,31.97
2018-06-10T23:46:26.665Z,30.10
2018-06-10T23:48:53.567Z,35.77
2018-06-10T23:51:20.519Z,31.23
2018-06-10T23:53:47.435Z,33.90
2018-06-10T23:56:14.398Z,27.47
2018-06-10T23:58:41.343Z,29.10
